createdAt,value
2023-04-23T00:01:28.222Z,23.13
2023-04-23T00:03:58.380Z,21.83
2023-04-23T00:06:26.965Z,22.08
2023-04-23T00:08:55.351Z,24.20
2023-04-23T00:11:23.436Z,23.05
2023-04-23T00:13:51.071Z,22.35
2023-04-23T00:16:20.841Z,22.95
2023-04-23T00:18:48.115Z,22.45
2023-04-23T00:21:15.393Z,23.13
2023-04-23T00:23:42.380Z,22.05
2023-04-23T00:26:10.165Z,23.15
2023-04-23T00:28:37.189Z,22.23
2023-04-23T00:31:04.773Z,23.63
2023-04-23T00:33:31.648Z,22.20
2023-04-23T00:35:59.112Z,22.38
2023-04-23T00:38:26.711Z,21.00
2023-04-23T00:40:54.437Z,22.38
2023-04-23T00:43:21.362Z,20.80
2023-04-23T00:45:49.449Z,20.35
2023-04-23T00:48:16.765Z,21.67
2023-04-23T00:50:44.337Z,19.52
2023-04-23T00:53:11.317Z,19.40
2023-04-23T00:55:39.138Z,19.88
2023-04-23T00:58:07.092Z,22.45
2023-04-23T01:00:42.624Z,20.58
2023-04-23T01:03:10.798Z,19.38
2023-04-23T01:05:39.456Z,19.25
2023-04-23T01:08:06.984Z,18.98
2023-04-23T01:10:34.635Z,17.92
2023-04-23T01:13:01.836Z,20.20
2023-04-23T01:15:29.258Z,18.83
2023-04-23T01:17:58.557Z,20.38
2023-04-23T01:20:25.809Z,19.50
2023-04-23T01:22:53.251Z,19.83
2023-04-23T01:25:20.478Z,20.17
2023-04-23T01:27:48.511Z,18.77
2023-04-23T01:30:16.685Z,20.50
2023-04-23T01:32:44.350Z,20.63
2023-04-23T01:35:13.379Z,19.70
2023-04-23T01:37:42.907Z,18.67
2023-04-23T01:40:10.402Z,19.35
2023-04-23T01:42:38.620Z,18.85
2023-04-23T01:45:08.132Z,19.50
2023-04-23T01:47:35.827Z,20.58
2023-04-23T01:50:05.174Z,19.38
2023-04-23T01:52:32.047Z,19.20
2023-04-23T01:54:59.583Z,18.98
2023-04-23T01:57:26.958Z,19.50
2023-04-23T02:00:04.291Z,18.88
2023-04-23T02:02:40.874Z,18.73
2023-04-23T02:05:20.964Z,17.60
2023-04-23T02:07:50.015Z,18.75
2023-04-23T02:10:18.682Z,18.67
2023-04-23T02:12:47.295Z,17.15
2023-04-23T02:15:15.767Z,18.65
2023-04-23T02:17:42.760Z,18.58
2023-04-23T02:20:11.414Z,18.33
2023-04-23T02:22:40.976Z,17.23
2023-04-23T02:25:09.541Z,18.20
2023-04-23T02:27:36.988Z,17.80
2023-04-23T02:30:04.807Z,17.40
2023-04-23T02:32:32.066Z,18.02
2023-04-23T02:35:02.111Z,18.88
2023-04-23T02:37:29.631Z,18.13
2023-04-23T02:39:56.690Z,17.65
2023-04-23T02:42:23.801Z,17.63
2023-04-23T02:44:50.984Z,17.27
2023-04-23T02:47:18.827Z,18.17
2023-04-23T02:49:46.071Z,19.25
2023-04-23T02:52:12.997Z,17.40
2023-04-23T02:54:40.298Z,18.08
2023-04-23T02:57:07.834Z,18.23
2023-04-23T02:59:35.704Z,19.13
2023-04-23T03:02:04.501Z,17.73
2023-04-23T03:04:32.030Z,17.80
2023-04-23T03:06:59.113Z,18.77
2023-04-23T03:09:26.358Z,19.48
2023-04-23T03:11:54.228Z,18.80
2023-04-23T03:14:21.349Z,17.83
2023-04-23T03:16:48.584Z,18.13
2023-04-23T03:19:17.109Z,17.50
2023-04-23T03:21:44.546Z,17.10
2023-04-23T03:24:13.755Z,18.27
2023-04-23T03:26:41.166Z,18.52
2023-04-23T03:29:08.382Z,17.33
2023-04-23T03:31:35.826Z,17.13
2023-04-23T03:34:03.689Z,17.45
2023-04-23T03:36:33.931Z,17.50
2023-04-23T03:39:02.343Z,18.00
2023-04-23T03:41:37.578Z,18.48
2023-04-23T03:44:05.721Z,18.83
2023-04-23T03:46:39.793Z,17.58
2023-04-23T03:49:07.562Z,18.95
2023-04-23T03:51:34.379Z,17.80
2023-04-23T03:54:02.155Z,18.75
2023-04-23T03:56:44.544Z,18.23
2023-04-23T03:59:38.708Z,18.00
2023-04-23T04:02:06.450Z,17.95
2023-04-23T04:04:34.331Z,17.85
2023-04-23T04:07:01.545Z,18.23
2023-04-23T04:09:29.713Z,18.30
2023-04-23T04:12:01.918Z,17.98
2023-04-23T04:14:32.234Z,18.27
2023-04-23T04:16:59.348Z,16.40
2023-04-23T04:19:27.126Z,17.52
2023-04-23T04:21:53.988Z,16.30
2023-04-23T04:24:23.149Z,17.45
2023-04-23T04:26:52.767Z,17.42
2023-04-23T04:29:21.386Z,17.08
2023-04-23T04:31:49.086Z,17.35
2023-04-23T04:34:18.039Z,15.98
2023-04-23T04:36:45.203Z,15.93
2023-04-23T04:39:13.570Z,16.33
2023-04-23T04:41:41.711Z,18.40
2023-04-23T04:44:09.193Z,18.52
2023-04-23T04:46:40.806Z,18.10
2023-04-23T04:49:11.822Z,18.83
2023-04-23T04:51:40.803Z,18.30
2023-04-23T04:54:08.537Z,18.02
2023-04-23T04:56:35.475Z,18.52
2023-04-23T04:59:04.139Z,17.92
2023-04-23T05:01:33.335Z,19.48
2023-04-23T05:04:00.949Z,18.08
2023-04-23T05:06:28.822Z,16.88
2023-04-23T05:08:56.385Z,17.17
2023-04-23T05:11:23.904Z,18.02
2023-04-23T05:13:51.656Z,17.05
2023-04-23T05:16:19.634Z,17.33
2023-04-23T05:18:46.865Z,16.23
2023-04-23T05:21:15.261Z,15.57
2023-04-23T05:23:42.699Z,16.52
2023-04-23T05:26:11.008Z,15.77
2023-04-23T05:28:38.321Z,16.13
2023-04-23T05:31:05.272Z,15.40
2023-04-23T05:33:39.244Z,14.60
2023-04-23T05:36:10.151Z,15.68
2023-04-23T05:38:38.987Z,15.18
2023-04-23T05:41:06.025Z,14.05
2023-04-23T05:43:33.206Z,15.05
2023-04-23T05:46:00.861Z,14.20
2023-04-23T05:48:29.175Z,13.52
2023-04-23T05:50:56.076Z,13.63
2023-04-23T05:53:23.240Z,14.15
2023-04-23T05:55:50.270Z,12.70
2023-04-23T05:58:19.191Z,13.63
2023-04-23T06:00:46.215Z,12.85
2023-04-23T06:03:13.498Z,13.68
2023-04-23T06:05:43.256Z,12.48
2023-04-23T06:08:10.611Z,12.82
2023-04-23T06:10:38.108Z,11.65
2023-04-23T06:13:05.286Z,12.15
2023-04-23T06:15:32.230Z,10.90
2023-04-23T06:17:59.706Z,11.63
2023-04-23T06:20:26.653Z,11.68
2023-04-23T06:22:54.174Z,10.75
2023-04-23T06:25:21.172Z,10.77
2023-04-23T06:27:48.681Z,10.90
2023-04-23T06:30:20.644Z,10.65
2023-04-23T06:32:48.168Z,10.43
2023-04-23T06:35:15.189Z,10.80
2023-04-23T06:37:43.107Z,10.50
2023-04-23T06:40:11.257Z,10.07
2023-04-23T06:42:39.289Z,10.00
2023-04-23T06:45:24.858Z,10.88
2023-04-23T06:47:52.485Z,10.18
2023-04-23T06:50:19.550Z,10.57
2023-04-23T06:52:46.993Z,9.32
2023-04-23T06:55:13.939Z,10.60
2023-04-23T06:57:41.647Z,9.35
2023-04-23T07:00:09.381Z,8.93
2023-04-23T07:02:39.332Z,8.50
2023-04-23T07:05:07.810Z,8.82
2023-04-23T07:07:37.417Z,8.95
2023-04-23T07:10:05.635Z,8.73
2023-04-23T07:12:33.119Z,8.00
2023-04-23T07:15:00.230Z,7.95
2023-04-23T07:17:27.749Z,8.25
2023-04-23T07:19:54.630Z,8.25
2023-04-23T07:22:22.169Z,8.48
2023-04-23T07:24:49.255Z,8.65
2023-04-23T07:27:16.460Z,7.97
2023-04-23T07:29:43.411Z,7.10
2023-04-23T07:32:11.637Z,6.75
2023-04-23T07:34:39.230Z,6.55
2023-04-23T07:37:06.676Z,6.90
2023-04-23T07:39:34.053Z,7.10
2023-04-23T07:42:02.185Z,7.70
2023-04-23T07:44:29.318Z,6.43
2023-04-23T07:46:56.642Z,6.57
2023-04-23T07:49:23.892Z,7.03
2023-04-23T07:51:51.107Z,7.10
2023-04-23T07:54:18.069Z,6.35
2023-04-23T07:56:45.163Z,6.20
2023-04-23T07:59:12.288Z,5.25
2023-04-23T08:01:39.629Z,4.90
2023-04-23T08:04:07.111Z,4.93
2023-04-23T08:06:35.642Z,5.68
2023-04-23T08:09:06.409Z,4.72
2023-04-23T08:11:34.250Z,5.80
2023-04-23T08:14:01.716Z,4.40
2023-04-23T08:16:30.420Z,4.60
2023-04-23T08:19:05.235Z,4.22
2023-04-23T08:21:34.926Z,4.63
2023-04-23T08:24:03.367Z,4.55
2023-04-23T08:26:31.628Z,4.38
2023-04-23T08:29:00.582Z,4.38
2023-04-23T08:31:27.825Z,4.50
2023-04-23T08:33:56.025Z,4.10
2023-04-23T08:36:23.200Z,4.00
2023-04-23T08:38:50.348Z,3.50
2023-04-23T08:41:22.808Z,3.85
2023-04-23T08:44:01.986Z,4.45
2023-04-23T08:46:33.039Z,3.60
2023-04-23T08:49:02.989Z,3.03
2023-04-23T08:51:32.959Z,3.53
2023-04-23T08:54:04.878Z,4.00
2023-04-23T08:56:32.744Z,3.30
2023-04-23T08:59:00.041Z,3.63
2023-04-23T09:01:28.004Z,3.70
2023-04-23T09:03:55.514Z,3.55
2023-04-23T09:06:23.323Z,3.65
2023-04-23T09:08:51.556Z,3.28
2023-04-23T09:11:20.648Z,3.35
2023-04-23T09:13:47.618Z,3.35
2023-04-23T09:16:15.487Z,3.47
2023-04-23T09:18:42.424Z,3.53
2023-04-23T09:21:10.882Z,3.45
2023-04-23T09:23:41.436Z,3.45
2023-04-23T09:26:08.791Z,2.88
2023-04-23T09:28:36.494Z,3.33
2023-04-23T09:31:07.861Z,3.65
2023-04-23T09:33:36.510Z,3.17
2023-04-23T09:36:15.640Z,3.90
2023-04-23T09:38:43.152Z,3.03
2023-04-23T09:41:27.030Z,3.40
2023-04-23T09:43:57.671Z,3.33
2023-04-23T09:46:38.262Z,3.47
2023-04-23T09:49:10.414Z,4.05
2023-04-23T09:51:40.409Z,3.50
2023-04-23T09:54:27.970Z,3.38
2023-04-23T09:57:00.910Z,3.25
2023-04-23T09:59:46.750Z,3.78
2023-04-23T10:02:14.937Z,3.35
2023-04-23T10:04:42.672Z,3.08
2023-04-23T10:07:20.451Z,2.90
2023-04-23T10:09:48.336Z,3.10
2023-04-23T10:12:35.710Z,2.95
2023-04-23T10:15:06.018Z,2.92
2023-04-23T10:17:38.304Z,2.85
2023-04-23T10:20:09.910Z,3.40
2023-04-23T10:22:38.861Z,3.10
2023-04-23T10:25:12.168Z,3.30
2023-04-23T10:27:53.230Z,2.75
2023-04-23T10:30:22.931Z,2.92
2023-04-23T10:32:50.966Z,3.00
2023-04-23T10:35:18.686Z,3.10
2023-04-23T10:37:48.537Z,2.90
2023-04-23T10:40:22.055Z,3.00
2023-04-23T10:42:50.101Z,2.78
2023-04-23T10:47:49.111Z,3.10
2023-04-23T10:50:23.194Z,3.05
2023-04-23T10:52:54.541Z,3.08
2023-04-23T10:58:16.666Z,2.90
2023-04-23T11:00:46.646Z,3.78
2023-04-23T11:03:34.687Z,2.83
2023-04-23T11:06:05.877Z,3.10
2023-04-23T11:08:36.085Z,3.63
2023-04-23T11:11:07.940Z,3.42
2023-04-23T11:13:35.576Z,3.13
2023-04-23T11:16:16.700Z,2.75
2023-04-23T11:19:05.262Z,3.88
2023-04-23T11:22:03.320Z,2.75
2023-04-23T11:24:44.693Z,3.65
2023-04-23T11:27:17.412Z,2.92
2023-04-23T11:29:46.709Z,3.17
2023-04-23T11:32:16.589Z,2.83
2023-04-23T11:34:46.093Z,2.72
2023-04-23T11:37:15.532Z,2.72
2023-04-23T11:39:44.541Z,8.65
2023-04-23T11:42:17.359Z,2.95
2023-04-23T11:44:45.699Z,3.28
2023-04-23T11:47:14.742Z,3.25
2023-04-23T11:49:44.670Z,3.00
2023-04-23T11:52:12.797Z,2.67
2023-04-23T11:54:41.403Z,3.03
2023-04-23T11:57:08.969Z,3.58
2023-04-23T11:59:36.162Z,2.95
2023-04-23T12:02:03.435Z,2.80
2023-04-23T12:04:32.246Z,2.50
2023-04-23T12:07:00.163Z,2.88
2023-04-23T12:09:29.623Z,2.72
2023-04-23T12:11:58.884Z,3.75
2023-04-23T12:14:31.309Z,3.03
2023-04-23T12:17:08.847Z,3.45
2023-04-23T12:19:36.634Z,3.05
2023-04-23T12:22:04.530Z,3.10
2023-04-23T12:24:46.965Z,3.15
2023-04-23T12:27:16.818Z,3.05
2023-04-23T12:29:47.363Z,2.67
2023-04-23T12:32:15.627Z,3.50
2023-04-23T12:34:56.119Z,2.97
2023-04-23T12:37:31.137Z,2.95
2023-04-23T12:39:59.682Z,3.03
2023-04-23T12:42:27.182Z,3.30
2023-04-23T12:44:56.477Z,3.47
2023-04-23T12:47:23.604Z,2.78
2023-04-23T12:49:53.899Z,3.33
2023-04-23T12:52:21.503Z,3.50
2023-04-23T12:54:52.789Z,3.20
2023-04-23T12:57:23.562Z,3.05
2023-04-23T12:59:50.982Z,3.35
2023-04-23T13:02:18.124Z,3.55
2023-04-23T13:04:46.322Z,3.13
2023-04-23T13:07:13.940Z,3.15
2023-04-23T13:09:42.253Z,3.00
2023-04-23T13:12:09.569Z,3.05
2023-04-23T13:14:36.794Z,2.60
2023-04-23T13:17:04.169Z,2.70
2023-04-23T13:19:31.685Z,2.97
2023-04-23T13:21:58.552Z,3.42
2023-04-23T13:24:25.686Z,2.65
2023-04-23T13:26:52.514Z,3.22
2023-04-23T13:29:19.827Z,3.35
2023-04-23T13:31:47.174Z,2.92
2023-04-23T13:34:14.481Z,3.28
2023-04-23T13:36:41.781Z,2.53
2023-04-23T13:39:10.120Z,3.45
2023-04-23T13:41:37.128Z,3.60
2023-04-23T13:44:04.341Z,3.00
2023-04-23T13:46:32.173Z,3.10
2023-04-23T13:49:01.177Z,3.22
2023-04-23T13:51:35.247Z,2.85
2023-04-23T13:54:03.785Z,3.03
2023-04-23T13:56:31.750Z,3.20
2023-04-23T13:59:18.846Z,2.83
2023-04-23T14:01:51.582Z,3.10
2023-04-23T14:04:21.195Z,3.30
2023-04-23T14:06:48.069Z,3.20
2023-04-23T14:09:15.771Z,2.92
2023-04-23T14:11:42.907Z,3.17
2023-04-23T14:14:10.671Z,3.60
2023-04-23T14:16:37.607Z,2.90
2023-04-23T14:19:04.962Z,3.30
2023-04-23T14:21:31.883Z,2.83
2023-04-23T14:24:07.169Z,3.47
2023-04-23T14:26:47.825Z,3.45
2023-04-23T14:29:34.775Z,2.58
2023-04-23T14:32:02.479Z,3.40
2023-04-23T14:34:29.793Z,3.03
2023-04-23T14:36:56.986Z,3.13
2023-04-23T14:39:26.340Z,3.20
2023-04-23T14:41:53.489Z,3.03
2023-04-23T14:44:23.438Z,2.92
2023-04-23T14:46:51.433Z,3.30
2023-04-23T14:49:20.984Z,3.40
2023-04-23T14:51:55.793Z,3.33
2023-04-23T14:54:23.778Z,4.00
2023-04-23T14:56:52.022Z,3.25
2023-04-23T14:59:19.843Z,3.22
2023-04-23T15:01:46.760Z,3.20
2023-04-23T15:04:14.780Z,3.20
2023-04-23T15:06:41.996Z,3.33
2023-04-23T15:09:09.409Z,3.25
2023-04-23T15:11:37.951Z,3.13
2023-04-23T15:14:05.699Z,3.17
2023-04-23T15:19:12.174Z,3.60
2023-04-23T15:21:39.593Z,3.50
2023-04-23T15:24:07.950Z,2.97
2023-04-23T15:26:36.399Z,3.60
2023-04-23T15:29:05.150Z,3.13
2023-04-23T15:31:32.273Z,3.63
2023-04-23T15:33:59.640Z,3.05
2023-04-23T15:36:26.618Z,3.35
2023-04-23T15:38:54.278Z,2.90
2023-04-23T15:41:21.989Z,3.60
2023-04-23T15:43:50.482Z,2.72
2023-04-23T15:46:17.525Z,3.28
2023-04-23T15:48:44.900Z,3.65
2023-04-23T15:51:11.978Z,3.50
2023-04-23T15:53:39.596Z,3.70
2023-04-23T15:56:06.574Z,3.75
2023-04-23T15:58:34.111Z,4.03
2023-04-23T16:01:02.135Z,4.40
2023-04-23T16:03:29.922Z,4.25
2023-04-23T16:05:56.912Z,3.63
2023-04-23T16:08:24.714Z,3.42
2023-04-23T16:10:51.686Z,3.63
2023-04-23T16:13:18.989Z,4.07
2023-04-23T16:15:46.124Z,3.85
2023-04-23T16:18:13.680Z,3.33
2023-04-23T16:20:41.452Z,3.55
2023-04-23T16:23:08.606Z,3.58
2023-04-23T16:25:37.170Z,3.38
2023-04-23T16:28:04.999Z,3.90
2023-04-23T16:30:32.198Z,4.10
2023-04-23T16:32:59.461Z,3.65
2023-04-23T16:35:26.942Z,4.13
2023-04-23T16:37:54.559Z,4.18
2023-04-23T16:40:21.623Z,3.35
2023-04-23T16:42:49.183Z,3.88
2023-04-23T16:45:16.756Z,3.42
2023-04-23T16:47:44.457Z,3.80
2023-04-23T16:50:11.986Z,4.13
2023-04-23T16:52:39.231Z,4.28
2023-04-23T16:55:07.171Z,3.38
2023-04-23T16:57:36.622Z,3.67
2023-04-23T17:00:05.187Z,3.70
2023-04-23T17:02:32.918Z,3.45
2023-04-23T17:05:00.195Z,2.90
2023-04-23T17:07:27.275Z,3.53
2023-04-23T17:09:54.768Z,3.40
2023-04-23T17:12:22.684Z,3.58
2023-04-23T17:14:49.549Z,4.88
2023-04-23T17:17:17.049Z,3.75
2023-04-23T17:19:45.679Z,3.58
2023-04-23T17:22:14.011Z,4.03
2023-04-23T17:24:41.306Z,3.53
2023-04-23T17:27:08.965Z,3.70
2023-04-23T17:29:36.130Z,3.60
2023-04-23T17:32:04.558Z,4.10
2023-04-23T17:34:31.549Z,3.03
2023-04-23T17:36:59.071Z,4.93
2023-04-23T17:39:26.226Z,3.70
2023-04-23T17:41:54.639Z,4.13
2023-04-23T17:44:21.530Z,4.40
2023-04-23T17:46:49.123Z,4.68
2023-04-23T17:49:16.588Z,3.83
2023-04-23T17:51:44.030Z,3.85
2023-04-23T17:54:11.456Z,4.75
2023-04-23T17:56:40.160Z,3.60
2023-04-23T17:59:07.324Z,3.50
2023-04-23T18:01:34.743Z,4.90
2023-04-23T18:04:02.121Z,4.55
2023-04-23T18:06:29.795Z,4.65
2023-04-23T18:08:57.033Z,4.72
2023-04-23T18:11:24.587Z,4.65
2023-04-23T18:13:53.510Z,5.20
2023-04-23T18:16:21.128Z,4.35
2023-04-23T18:18:49.420Z,4.32
2023-04-23T18:21:18.237Z,4.00
2023-04-23T18:23:45.582Z,4.43
2023-04-23T18:26:13.044Z,4.93
2023-04-23T18:28:40.345Z,4.35
2023-04-23T18:31:07.872Z,4.32
2023-04-23T18:33:42.179Z,4.65
2023-04-23T18:36:31.654Z,4.45
2023-04-23T18:38:59.540Z,5.30
2023-04-23T18:41:29.866Z,4.35
2023-04-23T18:43:57.205Z,5.05
2023-04-23T18:46:24.703Z,4.72
2023-04-23T18:48:52.442Z,5.75
2023-04-23T18:51:26.542Z,4.20
2023-04-23T18:53:54.092Z,4.47
2023-04-23T18:56:21.388Z,4.30
2023-04-23T18:58:52.588Z,4.65
2023-04-23T19:01:20.902Z,5.28
2023-04-23T19:03:48.375Z,4.63
2023-04-23T19:06:15.995Z,5.57
2023-04-23T19:08:42.925Z,4.85
2023-04-23T19:11:10.365Z,4.90
2023-04-23T19:13:37.564Z,4.88
2023-04-23T19:16:04.821Z,5.85
2023-04-23T19:18:32.128Z,5.85
2023-04-23T19:20:59.435Z,4.75
2023-04-23T19:23:26.520Z,4.88
2023-04-23T19:25:53.776Z,4.30
2023-04-23T19:28:20.917Z,4.95
2023-04-23T19:30:48.111Z,5.00
2023-04-23T19:33:15.459Z,5.13
2023-04-23T19:35:42.940Z,5.93
2023-04-23T19:38:10.128Z,4.78
2023-04-23T19:40:37.472Z,5.10
2023-04-23T19:43:05.328Z,5.53
2023-04-23T19:45:33.177Z,6.28
2023-04-23T19:48:00.748Z,5.05
2023-04-23T19:50:27.972Z,5.70
2023-04-23T19:52:54.983Z,5.05
2023-04-23T19:55:26.978Z,5.38
2023-04-23T19:57:55.427Z,4.90
2023-04-23T20:00:27.044Z,6.35
2023-04-23T20:02:55.787Z,5.55
2023-04-23T20:05:23.076Z,5.03
2023-04-23T20:07:50.353Z,5.57
2023-04-23T20:10:17.777Z,5.85
2023-04-23T20:12:44.721Z,5.47
2023-04-23T20:15:12.776Z,5.78
2023-04-23T20:17:41.096Z,6.68
2023-04-23T20:20:09.487Z,6.13
2023-04-23T20:22:36.408Z,6.47
2023-04-23T20:25:05.287Z,5.47
2023-04-23T20:27:33.337Z,6.07
2023-04-23T20:30:00.841Z,7.68
2023-04-23T20:32:27.743Z,6.25
2023-04-23T20:34:55.046Z,6.03
2023-04-23T20:37:22.020Z,5.82
2023-04-23T20:39:50.040Z,6.30
2023-04-23T20:42:17.062Z,6.57
2023-04-23T20:44:47.038Z,6.43
2023-04-23T20:47:14.328Z,5.80
2023-04-23T20:49:41.783Z,6.15
2023-04-23T20:52:09.123Z,6.72
2023-04-23T20:54:36.499Z,6.63
2023-04-23T20:57:03.969Z,6.15
2023-04-23T20:59:31.258Z,6.60
2023-04-23T21:01:58.940Z,7.25
2023-04-23T21:04:26.207Z,6.70
2023-04-23T21:06:53.370Z,6.07
2023-04-23T21:09:21.112Z,5.97
2023-04-23T21:11:48.352Z,6.43
2023-04-23T21:14:15.672Z,6.35
2023-04-23T21:16:42.984Z,5.80
2023-04-23T21:19:10.256Z,6.88
2023-04-23T21:21:37.295Z,5.90
2023-04-23T21:24:04.749Z,6.88
2023-04-23T21:26:32.630Z,6.75
2023-04-23T21:28:59.769Z,6.93
2023-04-23T21:31:30.414Z,5.70
2023-04-23T21:33:57.796Z,5.50
2023-04-23T21:36:24.822Z,5.72
2023-04-23T21:38:53.131Z,5.68
2023-04-23T21:41:20.301Z,6.47
2023-04-23T21:43:47.625Z,5.45
2023-04-23T21:46:14.716Z,5.57
2023-04-23T21:48:42.118Z,6.20
2023-04-23T21:51:09.000Z,5.78
2023-04-23T21:53:36.094Z,7.43
2023-04-23T21:56:03.327Z,6.68
2023-04-23T21:58:32.694Z,6.75
2023-04-23T22:01:00.781Z,6.13
2023-04-23T22:03:37.805Z,6.38
2023-04-23T22:06:07.294Z,6.20
2023-04-23T22:08:34.849Z,6.63
2023-04-23T22:11:01.654Z,5.93
2023-04-23T22:13:28.876Z,6.05
2023-04-23T22:15:57.322Z,6.13
2023-04-23T22:18:25.568Z,6.43
2023-04-23T22:20:53.123Z,6.07
2023-04-23T22:23:20.621Z,6.72
2023-04-23T22:25:47.678Z,6.10
2023-04-23T22:28:15.346Z,6.72
2023-04-23T22:30:42.602Z,7.15
2023-04-23T22:33:10.334Z,6.15
2023-04-23T22:35:37.175Z,6.55
2023-04-23T22:38:05.479Z,7.43
2023-04-23T22:40:32.548Z,6.32
2023-04-23T22:43:00.130Z,5.80
2023-04-23T22:45:27.024Z,7.20
2023-04-23T22:47:54.884Z,6.90
2023-04-23T22:50:22.318Z,6.53
2023-04-23T22:52:49.838Z,6.50
2023-04-23T22:55:16.941Z,6.93
2023-04-23T22:57:44.353Z,7.05
2023-04-23T23:00:12.971Z,6.43
2023-04-23T23:02:40.375Z,6.22
2023-04-23T23:05:07.794Z,6.43
2023-04-23T23:07:35.040Z,6.93
2023-04-23T23:10:03.727Z,6.90
2023-04-23T23:12:30.982Z,7.15
2023-04-23T23:14:58.195Z,7.72
2023-04-23T23:17:25.507Z,7.18
2023-04-23T23:19:52.680Z,6.90
2023-04-23T23:22:19.943Z,6.88
2023-04-23T23:24:47.081Z,6.47
2023-04-23T23:27:14.242Z,6.75
2023-04-23T23:29:41.757Z,7.22
2023-04-23T23:32:09.384Z,7.38
2023-04-23T23:34:36.486Z,7.10
2023-04-23T23:37:03.621Z,7.18
2023-04-23T23:39:30.834Z,7.10
2023-04-23T23:41:59.709Z,7.00
2023-04-23T23:44:27.602Z,7.32
2023-04-23T23:46:54.813Z,7.03
2023-04-23T23:49:22.538Z,7.32
2023-04-23T23:51:49.632Z,6.70
2023-04-23T23:54:16.548Z,7.93
2023-04-23T23:56:43.808Z,6.80
2023-04-23T23:59:10.886Z,7.65
